sensor_id;sensor_type;location;lat;lon;timestamp;pressure;altitude;pressure_sealevel;temperature;humidity
50710;BME280;37033;49.994;21.992;2023-01-25T00:01:04;101238.81;;;-0.47;97.95
50710;BME280;37033;49.994;21.992;2023-01-25T00:03:54;101241.91;;;-0.48;97.92
50710;BME280;37033;49.994;21.992;2023-01-25T00:06:44;101237.15;;;-0.49;97.96
50710;BME280;37033;49.994;21.992;2023-01-25T00:09:34;101234.28;;;-0.48;98.07
50710;BME280;37033;49.994;21.992;2023-01-25T00:12:24;101238.00;;;-0.48;97.96
50710;BME280;37033;49.994;21.992;2023-01-25T00:15:14;101231.89;;;-0.48;97.96
50710;BME280;37033;49.994;21.992;2023-01-25T00:18:05;101226.41;;;-0.48;98.04
50710;BME280;37033;49.994;21.992;2023-01-25T00:20:54;101227.83;;;-0.48;97.97
50710;BME280;37033;49.994;21.992;2023-01-25T00:23:44;101223.56;;;-0.48;97.99
50710;BME280;37033;49.994;21.992;2023-01-25T00:26:35;101224.02;;;-0.47;98.06
50710;BME280;37033;49.994;21.992;2023-01-25T00:29:25;101222.60;;;-0.47;98.04
50710;BME280;37033;49.994;21.992;2023-01-25T00:32:46;101228.26;;;-0.49;98.01
50710;BME280;37033;49.994;21.992;2023-01-25T00:35:36;101225.77;;;-0.49;98.03
50710;BME280;37033;49.994;21.992;2023-01-25T00:38:30;101219.73;;;-0.49;98.08
50710;BME280;37033;49.994;21.992;2023-01-25T00:41:22;101219.17;;;-0.49;97.96
50710;BME280;37033;49.994;21.992;2023-01-25T00:44:12;101212.01;;;-0.50;98.01
50710;BME280;37033;49.994;21.992;2023-01-25T00:47:03;101206.71;;;-0.51;98.02
50710;BME280;37033;49.994;21.992;2023-01-25T00:49:54;101208.57;;;-0.52;98.06
50710;BME280;37033;49.994;21.992;2023-01-25T00:52:44;101206.05;;;-0.51;98.01
50710;BME280;37033;49.994;21.992;2023-01-25T00:55:33;101201.74;;;-0.51;98.10
50710;BME280;37033;49.994;21.992;2023-01-25T00:58:24;101200.53;;;-0.52;98.13
50710;BME280;37033;49.994;21.992;2023-01-25T01:01:14;101199.35;;;-0.52;98.08
50710;BME280;37033;49.994;21.992;2023-01-25T01:04:04;101196.77;;;-0.54;98.03
50710;BME280;37033;49.994;21.992;2023-01-25T01:06:55;101186.67;;;-0.54;98.08
50710;BME280;37033;49.994;21.992;2023-01-25T01:09:45;101177.91;;;-0.54;98.02
50710;BME280;37033;49.994;21.992;2023-01-25T01:12:35;101175.73;;;-0.55;97.99
50710;BME280;37033;49.994;21.992;2023-01-25T01:15:25;101179.39;;;-0.57;98.04
50710;BME280;37033;49.994;21.992;2023-01-25T01:18:15;101176.95;;;-0.57;97.97
50710;BME280;37033;49.994;21.992;2023-01-25T01:21:05;101171.98;;;-0.57;98.01
50710;BME280;37033;49.994;21.992;2023-01-25T01:23:56;101169.69;;;-0.58;98.03
50710;BME280;37033;49.994;21.992;2023-01-25T01:26:46;101166.33;;;-0.58;98.01
50710;BME280;37033;49.994;21.992;2023-01-25T01:29:36;101168.55;;;-0.59;98.05
50710;BME280;37033;49.994;21.992;2023-01-25T01:32:26;101167.44;;;-0.58;98.13
50710;BME280;37033;49.994;21.992;2023-01-25T01:35:16;101159.05;;;-0.58;98.20
50710;BME280;37033;49.994;21.992;2023-01-25T01:38:05;101160.95;;;-0.57;98.22
50710;BME280;37033;49.994;21.992;2023-01-25T01:40:55;101161.23;;;-0.56;98.22
50710;BME280;37033;49.994;21.992;2023-01-25T01:43:45;101162.59;;;-0.56;98.25
50710;BME280;37033;49.994;21.992;2023-01-25T01:46:37;101160.16;;;-0.56;98.18
50710;BME280;37033;49.994;21.992;2023-01-25T01:49:29;101156.94;;;-0.56;98.21
50710;BME280;37033;49.994;21.992;2023-01-25T01:52:21;101152.44;;;-0.56;98.15
50710;BME280;37033;49.994;21.992;2023-01-25T01:55:15;101148.64;;;-0.55;98.08
50710;BME280;37033;49.994;21.992;2023-01-25T01:58:07;101145.24;;;-0.55;98.26
50710;BME280;37033;49.994;21.992;2023-01-25T02:00:57;101147.90;;;-0.54;98.17
50710;BME280;37033;49.994;21.992;2023-01-25T02:03:47;101148.60;;;-0.54;98.22
50710;BME280;37033;49.994;21.992;2023-01-25T02:06:45;101143.60;;;-0.54;98.20
50710;BME280;37033;49.994;21.992;2023-01-25T02:09:36;101145.86;;;-0.54;98.15
50710;BME280;37033;49.994;21.992;2023-01-25T02:12:26;101139.22;;;-0.53;98.12
50710;BME280;37033;49.994;21.992;2023-01-25T02:15:17;101138.63;;;-0.52;98.22
50710;BME280;37033;49.994;21.992;2023-01-25T02:18:08;101133.69;;;-0.51;98.25
50710;BME280;37033;49.994;21.992;2023-01-25T02:21:00;101133.81;;;-0.50;98.24
50710;BME280;37033;49.994;21.992;2023-01-25T02:23:55;101132.35;;;-0.50;98.28
50710;BME280;37033;49.994;21.992;2023-01-25T02:26:48;101136.23;;;-0.49;98.32
50710;BME280;37033;49.994;21.992;2023-01-25T02:29:38;101128.23;;;-0.50;98.22
50710;BME280;37033;49.994;21.992;2023-01-25T02:32:28;101124.76;;;-0.50;98.16
50710;BME280;37033;49.994;21.992;2023-01-25T02:35:23;101128.31;;;-0.53;98.12
50710;BME280;37033;49.994;21.992;2023-01-25T02:38:15;101128.68;;;-0.53;98.16
50710;BME280;37033;49.994;21.992;2023-01-25T02:41:09;101125.69;;;-0.53;98.17
50710;BME280;37033;49.994;21.992;2023-01-25T02:44:02;101124.97;;;-0.53;98.21
50710;BME280;37033;49.994;21.992;2023-01-25T02:46:52;101122.66;;;-0.51;98.18
50710;BME280;37033;49.994;21.992;2023-01-25T02:49:42;101115.21;;;-0.51;98.21
50710;BME280;37033;49.994;21.992;2023-01-25T02:55:22;101116.63;;;-0.51;98.16
50710;BME280;37033;49.994;21.992;2023-01-25T02:58:12;101120.52;;;-0.51;98.20
50710;BME280;37033;49.994;21.992;2023-01-25T03:01:02;101119.54;;;-0.50;98.26
50710;BME280;37033;49.994;21.992;2023-01-25T03:03:52;101114.07;;;-0.51;98.25
50710;BME280;37033;49.994;21.992;2023-01-25T03:06:42;101109.23;;;-0.50;98.25
50710;BME280;37033;49.994;21.992;2023-01-25T03:09:32;101101.27;;;-0.51;98.23
50710;BME280;37033;49.994;21.992;2023-01-25T03:12:22;101097.71;;;-0.51;98.24
50710;BME280;37033;49.994;21.992;2023-01-25T03:15:12;101098.13;;;-0.52;98.32
50710;BME280;37033;49.994;21.992;2023-01-25T03:18:02;101098.20;;;-0.52;98.26
50710;BME280;37033;49.994;21.992;2023-01-25T03:20:51;101098.03;;;-0.52;98.23
50710;BME280;37033;49.994;21.992;2023-01-25T03:23:41;101093.98;;;-0.53;98.24
50710;BME280;37033;49.994;21.992;2023-01-25T03:26:32;101094.69;;;-0.53;98.26
50710;BME280;37033;49.994;21.992;2023-01-25T03:29:42;101096.08;;;-0.53;98.20
50710;BME280;37033;49.994;21.992;2023-01-25T03:32:33;101097.10;;;-0.52;98.21
50710;BME280;37033;49.994;21.992;2023-01-25T03:35:23;101100.73;;;-0.51;98.31
50710;BME280;37033;49.994;21.992;2023-01-25T03:38:13;101101.42;;;-0.50;98.37
50710;BME280;37033;49.994;21.992;2023-01-25T03:41:04;101097.67;;;-0.51;98.30
50710;BME280;37033;49.994;21.992;2023-01-25T03:43:55;101094.84;;;-0.50;98.35
50710;BME280;37033;49.994;21.992;2023-01-25T03:46:45;101094.55;;;-0.52;98.30
50710;BME280;37033;49.994;21.992;2023-01-25T03:49:35;101087.73;;;-0.53;98.24
50710;BME280;37033;49.994;21.992;2023-01-25T03:52:33;101089.30;;;-0.54;98.21
50710;BME280;37033;49.994;21.992;2023-01-25T03:55:38;101086.28;;;-0.55;98.25
50710;BME280;37033;49.994;21.992;2023-01-25T03:58:29;101086.80;;;-0.54;98.31
50710;BME280;37033;49.994;21.992;2023-01-25T04:01:19;101086.83;;;-0.55;98.30
50710;BME280;37033;49.994;21.992;2023-01-25T04:04:09;101088.80;;;-0.55;98.27
50710;BME280;37033;49.994;21.992;2023-01-25T04:06:59;101084.20;;;-0.55;98.31
50710;BME280;37033;49.994;21.992;2023-01-25T04:09:49;101086.30;;;-0.55;98.29
50710;BME280;37033;49.994;21.992;2023-01-25T04:12:39;101084.91;;;-0.55;98.31
50710;BME280;37033;49.994;21.992;2023-01-25T04:15:29;101079.41;;;-0.56;98.22
50710;BME280;37033;49.994;21.992;2023-01-25T04:18:20;101073.35;;;-0.55;98.33
50710;BME280;37033;49.994;21.992;2023-01-25T04:21:10;101068.52;;;-0.55;98.26
50710;BME280;37033;49.994;21.992;2023-01-25T04:24:00;101070.06;;;-0.55;98.36
50710;BME280;37033;49.994;21.992;2023-01-25T04:26:49;101068.42;;;-0.54;98.50
50710;BME280;37033;49.994;21.992;2023-01-25T04:29:39;101065.55;;;-0.54;98.33
50710;BME280;37033;49.994;21.992;2023-01-25T04:32:29;101070.09;;;-0.53;98.33
50710;BME280;37033;49.994;21.992;2023-01-25T04:35:20;101060.90;;;-0.51;98.44
50710;BME280;37033;49.994;21.992;2023-01-25T04:38:11;101054.84;;;-0.51;98.48
50710;BME280;37033;49.994;21.992;2023-01-25T04:41:00;101056.59;;;-0.51;98.39
50710;BME280;37033;49.994;21.992;2023-01-25T04:43:53;101050.74;;;-0.51;98.42
50710;BME280;37033;49.994;21.992;2023-01-25T04:46:43;101050.33;;;-0.51;98.51
50710;BME280;37033;49.994;21.992;2023-01-25T04:49:33;101043.02;;;-0.51;98.48
50710;BME280;37033;49.994;21.992;2023-01-25T04:52:23;101042.70;;;-0.49;98.45
50710;BME280;37033;49.994;21.992;2023-01-25T04:55:13;101042.39;;;-0.47;98.39
50710;BME280;37033;49.994;21.992;2023-01-25T04:58:03;101038.28;;;-0.47;98.50
50710;BME280;37033;49.994;21.992;2023-01-25T05:00:53;101038.61;;;-0.47;98.56
50710;BME280;37033;49.994;21.992;2023-01-25T05:03:43;101038.95;;;-0.47;98.41
50710;BME280;37033;49.994;21.992;2023-01-25T05:06:33;101035.20;;;-0.47;98.39
50710;BME280;37033;49.994;21.992;2023-01-25T05:09:23;101037.61;;;-0.48;98.32
50710;BME280;37033;49.994;21.992;2023-01-25T05:12:13;101040.25;;;-0.47;98.47
50710;BME280;37033;49.994;21.992;2023-01-25T05:15:03;101035.23;;;-0.47;98.42
50710;BME280;37033;49.994;21.992;2023-01-25T05:17:53;101034.91;;;-0.48;98.41
50710;BME280;37033;49.994;21.992;2023-01-25T05:20:43;101035.91;;;-0.47;98.45
50710;BME280;37033;49.994;21.992;2023-01-25T05:23:33;101035.41;;;-0.45;98.49
50710;BME280;37033;49.994;21.992;2023-01-25T05:26:23;101040.73;;;-0.45;98.51
50710;BME280;37033;49.994;21.992;2023-01-25T05:29:32;101043.42;;;-0.45;98.49
50710;BME280;37033;49.994;21.992;2023-01-25T05:32:25;101046.24;;;-0.45;98.44
50710;BME280;37033;49.994;21.992;2023-01-25T05:35:15;101052.73;;;-0.46;98.48
50710;BME280;37033;49.994;21.992;2023-01-25T05:38:05;101049.48;;;-0.45;98.41
50710;BME280;37033;49.994;21.992;2023-01-25T05:40:58;101047.21;;;-0.46;98.40
50710;BME280;37033;49.994;21.992;2023-01-25T05:43:49;101045.95;;;-0.45;98.43
50710;BME280;37033;49.994;21.992;2023-01-25T05:46:40;101045.11;;;-0.46;98.39
50710;BME280;37033;49.994;21.992;2023-01-25T05:49:30;101047.91;;;-0.45;98.44
50710;BME280;37033;49.994;21.992;2023-01-25T05:52:21;101044.70;;;-0.45;98.49
50710;BME280;37033;49.994;21.992;2023-01-25T05:55:11;101047.69;;;-0.45;98.44
50710;BME280;37033;49.994;21.992;2023-01-25T05:58:02;101044.92;;;-0.44;98.53
50710;BME280;37033;49.994;21.992;2023-01-25T06:00:51;101042.71;;;-0.43;98.52
50710;BME280;37033;49.994;21.992;2023-01-25T06:03:42;101043.04;;;-0.43;98.50
50710;BME280;37033;49.994;21.992;2023-01-25T06:06:32;101043.19;;;-0.42;98.54
50710;BME280;37033;49.994;21.992;2023-01-25T06:09:22;101039.84;;;-0.43;98.56
50710;BME280;37033;49.994;21.992;2023-01-25T06:12:13;101038.44;;;-0.43;98.44
50710;BME280;37033;49.994;21.992;2023-01-25T06:15:05;101041.29;;;-0.41;98.57
50710;BME280;37033;49.994;21.992;2023-01-25T06:17:56;101037.88;;;-0.41;98.52
50710;BME280;37033;49.994;21.992;2023-01-25T06:20:46;101040.27;;;-0.39;98.49
50710;BME280;37033;49.994;21.992;2023-01-25T06:23:37;101032.08;;;-0.39;98.55
50710;BME280;37033;49.994;21.992;2023-01-25T06:26:27;101032.02;;;-0.38;98.61
50710;BME280;37033;49.994;21.992;2023-01-25T06:29:17;101037.80;;;-0.37;98.62
50710;BME280;37033;49.994;21.992;2023-01-25T06:32:07;101034.81;;;-0.38;98.54
50710;BME280;37033;49.994;21.992;2023-01-25T06:34:57;101030.76;;;-0.38;98.56
50710;BME280;37033;49.994;21.992;2023-01-25T06:37:47;101029.95;;;-0.39;98.56
50710;BME280;37033;49.994;21.992;2023-01-25T06:40:38;101025.23;;;-0.41;98.44
50710;BME280;37033;49.994;21.992;2023-01-25T06:43:28;101025.46;;;-0.41;98.51
50710;BME280;37033;49.994;21.992;2023-01-25T06:46:19;101021.36;;;-0.41;98.56
50710;BME280;37033;49.994;21.992;2023-01-25T06:49:11;101025.91;;;-0.40;98.52
50710;BME280;37033;49.994;21.992;2023-01-25T06:52:01;101021.75;;;-0.39;98.60
50710;BME280;37033;49.994;21.992;2023-01-25T06:54:51;101011.17;;;-0.38;98.58
50710;BME280;37033;49.994;21.992;2023-01-25T06:57:41;101005.46;;;-0.36;98.62
50710;BME280;37033;49.994;21.992;2023-01-25T07:00:31;101008.98;;;-0.34;98.66
50710;BME280;37033;49.994;21.992;2023-01-25T07:03:21;101012.11;;;-0.33;98.74
50710;BME280;37033;49.994;21.992;2023-01-25T07:06:11;101016.81;;;-0.32;98.77
50710;BME280;37033;49.994;21.992;2023-01-25T07:09:05;101018.33;;;-0.30;98.64
50710;BME280;37033;49.994;21.992;2023-01-25T07:11:55;101014.29;;;-0.29;98.68
50710;BME280;37033;49.994;21.992;2023-01-25T07:14:46;101009.55;;;-0.28;98.72
50710;BME280;37033;49.994;21.992;2023-01-25T07:17:37;101007.91;;;-0.27;98.71
50710;BME280;37033;49.994;21.992;2023-01-25T07:20:26;101010.87;;;-0.27;98.71
50710;BME280;37033;49.994;21.992;2023-01-25T07:23:16;101005.47;;;-0.26;98.73
50710;BME280;37033;49.994;21.992;2023-01-25T07:26:08;101005.55;;;-0.25;98.75
50710;BME280;37033;49.994;21.992;2023-01-25T07:29:03;101011.10;;;-0.21;98.80
50710;BME280;37033;49.994;21.992;2023-01-25T07:31:53;101006.11;;;-0.18;98.92
50710;BME280;37033;49.994;21.992;2023-01-25T07:34:43;101006.57;;;-0.17;98.84
50710;BME280;37033;49.994;21.992;2023-01-25T07:37:33;101001.84;;;-0.17;98.79
50710;BME280;37033;49.994;21.992;2023-01-25T07:40:23;101002.39;;;-0.15;98.77
50710;BME280;37033;49.994;21.992;2023-01-25T07:43:13;101004.19;;;-0.15;98.68
50710;BME280;37033;49.994;21.992;2023-01-25T07:46:04;101000.53;;;-0.14;98.75
50710;BME280;37033;49.994;21.992;2023-01-25T07:48:54;101000.19;;;-0.12;98.71
50710;BME280;37033;49.994;21.992;2023-01-25T07:51:46;101003.53;;;-0.11;98.73
50710;BME280;37033;49.994;21.992;2023-01-25T07:54:36;101004.48;;;-0.12;98.63
50710;BME280;37033;49.994;21.992;2023-01-25T07:57:26;101002.73;;;-0.13;98.55
50710;BME280;37033;49.994;21.992;2023-01-25T08:00:18;101000.48;;;-0.13;98.52
50710;BME280;37033;49.994;21.992;2023-01-25T08:03:08;100994.66;;;-0.14;98.48
50710;BME280;37033;49.994;21.992;2023-01-25T08:05:58;100992.24;;;-0.13;98.57
50710;BME280;37033;49.994;21.992;2023-01-25T08:08:49;100993.80;;;-0.10;98.45
50710;BME280;37033;49.994;21.992;2023-01-25T08:11:39;100995.07;;;-0.08;98.46
50710;BME280;37033;49.994;21.992;2023-01-25T08:14:30;100988.97;;;-0.08;98.38
50710;BME280;37033;49.994;21.992;2023-01-25T08:17:20;100989.19;;;-0.06;98.38
50710;BME280;37033;49.994;21.992;2023-01-25T08:20:12;100985.77;;;-0.04;98.37
50710;BME280;37033;49.994;21.992;2023-01-25T08:23:03;100977.41;;;-0.02;98.27
50710;BME280;37033;49.994;21.992;2023-01-25T08:25:53;100978.23;;;0.01;98.21
50710;BME280;37033;49.994;21.992;2023-01-25T08:28:44;100979.02;;;0.02;98.24
50710;BME280;37033;49.994;21.992;2023-01-25T08:31:35;100976.42;;;0.03;98.20
50710;BME280;37033;49.994;21.992;2023-01-25T08:34:26;100969.67;;;0.05;98.15
50710;BME280;37033;49.994;21.992;2023-01-25T08:37:18;100973.63;;;0.07;98.08
50710;BME280;37033;49.994;21.992;2023-01-25T08:40:11;100977.70;;;0.07;98.00
50710;BME280;37033;49.994;21.992;2023-01-25T08:43:01;100970.33;;;0.08;98.03
50710;BME280;37033;49.994;21.992;2023-01-25T08:45:57;100971.45;;;0.09;97.89
50710;BME280;37033;49.994;21.992;2023-01-25T08:48:48;100972.54;;;0.11;98.09
50710;BME280;37033;49.994;21.992;2023-01-25T08:51:42;100975.23;;;0.13;97.91
50710;BME280;37033;49.994;21.992;2023-01-25T08:54:32;100970.39;;;0.15;98.04
50710;BME280;37033;49.994;21.992;2023-01-25T08:57:22;100966.66;;;0.19;98.01
50710;BME280;37033;49.994;21.992;2023-01-25T09:00:16;100964.35;;;0.23;98.05
50710;BME280;37033;49.994;21.992;2023-01-25T09:03:06;100966.44;;;0.26;98.09
50710;BME280;37033;49.994;21.992;2023-01-25T09:05:57;100955.92;;;0.26;97.94
50710;BME280;37033;49.994;21.992;2023-01-25T09:08:48;100964.10;;;0.26;97.74
50710;BME280;37033;49.994;21.992;2023-01-25T09:11:38;100957.80;;;0.27;97.73
50710;BME280;37033;49.994;21.992;2023-01-25T09:14:28;100951.94;;;0.28;97.76
50710;BME280;37033;49.994;21.992;2023-01-25T09:17:19;100953.26;;;0.32;97.64
50710;BME280;37033;49.994;21.992;2023-01-25T09:20:11;100956.79;;;0.32;97.57
50710;BME280;37033;49.994;21.992;2023-01-25T09:23:00;100957.07;;;0.31;97.42
50710;BME280;37033;49.994;21.992;2023-01-25T09:25:56;100952.94;;;0.31;97.37
50710;BME280;37033;49.994;21.992;2023-01-25T09:28:50;100953.53;;;0.30;97.20
50710;BME280;37033;49.994;21.992;2023-01-25T09:31:40;100953.90;;;0.30;97.12
50710;BME280;37033;49.994;21.992;2023-01-25T09:34:31;100949.48;;;0.32;97.15
50710;BME280;37033;49.994;21.992;2023-01-25T09:37:21;100948.85;;;0.33;97.08
50710;BME280;37033;49.994;21.992;2023-01-25T09:40:19;100950.97;;;0.35;97.04
50710;BME280;37033;49.994;21.992;2023-01-25T09:43:16;100945.80;;;0.37;96.91
50710;BME280;37033;49.994;21.992;2023-01-25T09:46:20;100937.60;;;0.41;97.01
50710;BME280;37033;49.994;21.992;2023-01-25T09:49:34;100934.80;;;0.43;96.83
50710;BME280;37033;49.994;21.992;2023-01-25T09:52:42;100929.34;;;0.42;96.52
50710;BME280;37033;49.994;21.992;2023-01-25T09:55:38;100924.03;;;0.39;96.19
50710;BME280;37033;49.994;21.992;2023-01-25T09:58:33;100915.92;;;0.38;96.02
50710;BME280;37033;49.994;21.992;2023-01-25T10:01:29;100911.76;;;0.39;96.11
50710;BME280;37033;49.994;21.992;2023-01-25T10:04:25;100907.88;;;0.41;95.96
50710;BME280;37033;49.994;21.992;2023-01-25T10:07:20;100900.54;;;0.41;95.93
50710;BME280;37033;49.994;21.992;2023-01-25T10:13:10;100890.48;;;0.44;95.91
50710;BME280;37033;49.994;21.992;2023-01-25T10:16:04;100883.95;;;0.43;95.67
50710;BME280;37033;49.994;21.992;2023-01-25T10:19:06;100884.80;;;0.39;95.33
50710;BME280;37033;49.994;21.992;2023-01-25T10:22:07;100880.50;;;0.35;95.21
50710;BME280;37033;49.994;21.992;2023-01-25T10:25:19;100876.03;;;0.34;95.25
50710;BME280;37033;49.994;21.992;2023-01-25T10:28:29;100874.75;;;0.34;95.32
50710;BME280;37033;49.994;21.992;2023-01-25T10:31:30;100871.12;;;0.33;95.24
50710;BME280;37033;49.994;21.992;2023-01-25T10:34:23;100872.27;;;0.32;95.15
50710;BME280;37033;49.994;21.992;2023-01-25T10:37:17;100870.73;;;0.29;94.75
50710;BME280;37033;49.994;21.992;2023-01-25T10:40:16;100868.15;;;0.26;94.81
50710;BME280;37033;49.994;21.992;2023-01-25T10:43:14;100857.86;;;0.25;94.78
50710;BME280;37033;49.994;21.992;2023-01-25T10:46:05;100854.13;;;0.22;94.63
50710;BME280;37033;49.994;21.992;2023-01-25T10:49:17;100852.04;;;0.21;94.65
50710;BME280;37033;49.994;21.992;2023-01-25T10:52:16;100849.59;;;0.18;94.56
50710;BME280;37033;49.994;21.992;2023-01-25T10:55:18;100849.20;;;0.17;94.65
50710;BME280;37033;49.994;21.992;2023-01-25T10:58:31;100846.79;;;0.15;94.70
50710;BME280;37033;49.994;21.992;2023-01-25T11:01:31;100845.34;;;0.14;94.70
50710;BME280;37033;49.994;21.992;2023-01-25T11:04:38;100841.14;;;0.15;94.81
50710;BME280;37033;49.994;21.992;2023-01-25T11:07:30;100836.38;;;0.14;94.81
50710;BME280;37033;49.994;21.992;2023-01-25T11:10:30;100830.55;;;0.14;94.67
50710;BME280;37033;49.994;21.992;2023-01-25T11:13:23;100828.52;;;0.12;94.66
50710;BME280;37033;49.994;21.992;2023-01-25T11:16:29;100822.63;;;0.13;94.67
50710;BME280;37033;49.994;21.992;2023-01-25T11:19:39;100813.15;;;0.11;94.61
50710;BME280;37033;49.994;21.992;2023-01-25T11:22:29;100807.69;;;0.10;94.59
50710;BME280;37033;49.994;21.992;2023-01-25T11:25:31;100802.80;;;0.11;94.77
50710;BME280;37033;49.994;21.992;2023-01-25T11:28:22;100802.04;;;0.14;94.74
50710;BME280;37033;49.994;21.992;2023-01-25T11:31:15;100802.60;;;0.15;94.72
50710;BME280;37033;49.994;21.992;2023-01-25T11:34:09;100802.66;;;0.16;94.70
50710;BME280;37033;49.994;21.992;2023-01-25T11:37:15;100801.70;;;0.15;94.53
50710;BME280;37033;49.994;21.992;2023-01-25T11:40:16;100794.22;;;0.13;94.42
50710;BME280;37033;49.994;21.992;2023-01-25T11:43:20;100789.99;;;0.13;94.44
50710;BME280;37033;49.994;21.992;2023-01-25T11:46:30;100783.83;;;0.12;94.46
50710;BME280;37033;49.994;21.992;2023-01-25T11:49:40;100774.94;;;0.12;94.49
50710;BME280;37033;49.994;21.992;2023-01-25T11:52:42;100771.20;;;0.12;94.54
50710;BME280;37033;49.994;21.992;2023-01-25T11:55:42;100763.91;;;0.12;94.49
50710;BME280;37033;49.994;21.992;2023-01-25T11:58:46;100760.43;;;0.11;94.41
50710;BME280;37033;49.994;21.992;2023-01-25T12:01:50;100759.88;;;0.09;94.39
50710;BME280;37033;49.994;21.992;2023-01-25T12:05:17;100757.20;;;0.07;94.28
50710;BME280;37033;49.994;21.992;2023-01-25T12:08:21;100754.81;;;0.06;94.24
50710;BME280;37033;49.994;21.992;2023-01-25T12:11:26;100755.01;;;0.06;94.17
50710;BME280;37033;49.994;21.992;2023-01-25T12:14:28;100749.72;;;0.05;94.13
50710;BME280;37033;49.994;21.992;2023-01-25T12:17:26;100747.73;;;0.05;94.18
50710;BME280;37033;49.994;21.992;2023-01-25T12:20:33;100747.66;;;0.06;94.15
50710;BME280;37033;49.994;21.992;2023-01-25T12:23:43;100743.33;;;0.09;94.22
50710;BME280;37033;49.994;21.992;2023-01-25T12:26:44;100740.14;;;0.10;94.34
50710;BME280;37033;49.994;21.992;2023-01-25T12:29:39;100734.48;;;0.10;94.18
50710;BME280;37033;49.994;21.992;2023-01-25T12:32:37;100737.08;;;0.11;94.22
50710;BME280;37033;49.994;21.992;2023-01-25T12:35:33;100730.77;;;0.11;93.93
50710;BME280;37033;49.994;21.992;2023-01-25T12:38:29;100727.12;;;0.10;94.04
50710;BME280;37033;49.994;21.992;2023-01-25T12:41:29;100725.20;;;0.10;93.94
50710;BME280;37033;49.994;21.992;2023-01-25T12:44:24;100722.34;;;0.10;93.90
50710;BME280;37033;49.994;21.992;2023-01-25T12:47:22;100716.40;;;0.11;93.91
50710;BME280;37033;49.994;21.992;2023-01-25T12:50:19;100711.42;;;0.13;94.02
50710;BME280;37033;49.994;21.992;2023-01-25T12:53:15;100705.64;;;0.15;93.98
50710;BME280;37033;49.994;21.992;2023-01-25T12:56:08;100704.93;;;0.17;93.92
50710;BME280;37033;49.994;21.992;2023-01-25T12:59:05;100705.36;;;0.18;94.00
50710;BME280;37033;49.994;21.992;2023-01-25T13:02:06;100707.01;;;0.20;94.00
50710;BME280;37033;49.994;21.992;2023-01-25T13:05:07;100704.66;;;0.20;93.96
50710;BME280;37033;49.994;21.992;2023-01-25T13:08:09;100700.73;;;0.22;93.94
50710;BME280;37033;49.994;21.992;2023-01-25T13:11:07;100695.09;;;0.24;93.88
50710;BME280;37033;49.994;21.992;2023-01-25T13:14:34;100696.58;;;0.23;93.73
50710;BME280;37033;49.994;21.992;2023-01-25T13:17:30;100694.69;;;0.18;93.33
50710;BME280;37033;49.994;21.992;2023-01-25T13:20:52;100689.48;;;0.14;93.16
50710;BME280;37033;49.994;21.992;2023-01-25T13:23:43;100679.23;;;0.10;93.13
50710;BME280;37033;49.994;21.992;2023-01-25T13:26:58;100676.56;;;0.08;93.03
50710;BME280;37033;49.994;21.992;2023-01-25T13:29:55;100668.21;;;0.06;93.12
50710;BME280;37033;49.994;21.992;2023-01-25T13:33:03;100659.89;;;0.07;93.21
50710;BME280;37033;49.994;21.992;2023-01-25T13:35:54;100653.81;;;0.05;92.93
50710;BME280;37033;49.994;21.992;2023-01-25T13:38:44;100655.08;;;0.03;92.85
50710;BME280;37033;49.994;21.992;2023-01-25T13:41:34;100659.45;;;0.02;92.79
50710;BME280;37033;49.994;21.992;2023-01-25T13:44:25;100656.40;;;0.00;92.53
50710;BME280;37033;49.994;21.992;2023-01-25T13:47:19;100655.13;;;-0.03;91.63
50710;BME280;37033;49.994;21.992;2023-01-25T13:50:17;100651.23;;;-0.07;91.57
50710;BME280;37033;49.994;21.992;2023-01-25T13:53:19;100652.66;;;-0.09;91.62
50710;BME280;37033;49.994;21.992;2023-01-25T13:56:25;100650.33;;;-0.11;91.74
50710;BME280;37033;49.994;21.992;2023-01-25T13:59:26;100646.95;;;-0.13;91.71
50710;BME280;37033;49.994;21.992;2023-01-25T14:02:19;100646.84;;;-0.15;91.67
50710;BME280;37033;49.994;21.992;2023-01-25T14:05:20;100650.28;;;-0.16;91.64
50710;BME280;37033;49.994;21.992;2023-01-25T14:08:10;100644.17;;;-0.17;91.69
50710;BME280;37033;49.994;21.992;2023-01-25T14:11:02;100640.54;;;-0.17;91.78
50710;BME280;37033;49.994;21.992;2023-01-25T14:14:00;100639.27;;;-0.15;92.00
50710;BME280;37033;49.994;21.992;2023-01-25T14:17:09;100638.91;;;-0.15;91.98
50710;BME280;37033;49.994;21.992;2023-01-25T14:20:10;100631.05;;;-0.15;91.99
50710;BME280;37033;49.994;21.992;2023-01-25T14:23:17;100627.91;;;-0.15;91.78
50710;BME280;37033;49.994;21.992;2023-01-25T14:26:23;100619.02;;;-0.15;91.77
50710;BME280;37033;49.994;21.992;2023-01-25T14:29:18;100612.08;;;-0.17;91.60
50710;BME280;37033;49.994;21.992;2023-01-25T14:32:16;100611.29;;;-0.21;91.19
50710;BME280;37033;49.994;21.992;2023-01-25T14:35:32;100613.17;;;-0.24;91.11
50710;BME280;37033;49.994;21.992;2023-01-25T14:38:28;100607.02;;;-0.24;91.19
50710;BME280;37033;49.994;21.992;2023-01-25T14:41:20;100604.01;;;-0.25;91.29
50710;BME280;37033;49.994;21.992;2023-01-25T14:44:13;100601.92;;;-0.25;91.36
50710;BME280;37033;49.994;21.992;2023-01-25T14:47:29;100601.67;;;-0.26;91.16
50710;BME280;37033;49.994;21.992;2023-01-25T14:50:34;100599.43;;;-0.31;90.88
50710;BME280;37033;49.994;21.992;2023-01-25T14:53:25;100598.87;;;-0.33;90.81
50710;BME280;37033;49.994;21.992;2023-01-25T14:56:26;100598.33;;;-0.34;90.64
50710;BME280;37033;49.994;21.992;2023-01-25T14:59:25;100598.60;;;-0.38;90.48
50710;BME280;37033;49.994;21.992;2023-01-25T15:02:22;100594.72;;;-0.40;90.70
50710;BME280;37033;49.994;21.992;2023-01-25T15:05:19;100598.56;;;-0.41;90.64
50710;BME280;37033;49.994;21.992;2023-01-25T15:08:25;100594.13;;;-0.41;90.68